Majsk, Russia
Current Conditions -  °F | °C
As of 6:30 PM on Saturday 25 Oct 2014 (Local Time) from USNN Reporting Station
Light Snow Light Snow  
Wind Chill:   Ceiling: 4000
Heat Index: 12°   Visibility: 4mi
Dew Point:   Wind: 4mph
Humidity: 79%   Direction: 360°N
Pressure: 29.59"   Gusts: NA
Location:  57.78°N, 77.28°E
Report Text: USNN 251130Z 36002MPS 6000 -SN OVC040 M11/M14 Q1002 NOSIG RMKQFE747 03490851
Loading
Personal Weather Stations






























Interactive Weather Map
Tropical Storm Tracking
New forecast layout! Learn more

10-Day Weather Forecast

Advertisements
Track Severe Weather on mobile